sensor_id;sensor_type;location;lat;lon;timestamp;P1;durP1;ratioP1;P2;durP2;ratioP2
21175;SDS011;10746;50.178;8.186;2023-03-01T00:01:00;16.80;;;9.07;;
21175;SDS011;10746;50.178;8.186;2023-03-01T00:03:28;22.00;;;10.70;;
21175;SDS011;10746;50.178;8.186;2023-03-01T00:05:55;26.07;;;9.93;;
21175;SDS011;10746;50.178;8.186;2023-03-01T00:08:22;21.27;;;10.30;;
21175;SDS011;10746;50.178;8.186;2023-03-01T00:10:48;19.83;;;9.80;;
21175;SDS011;10746;50.178;8.186;2023-03-01T00:13:15;18.73;;;10.20;;
21175;SDS011;10746;50.178;8.186;2023-03-01T00:15:42;21.63;;;10.17;;
21175;SDS011;10746;50.178;8.186;2023-03-01T00:18:09;23.47;;;10.23;;
21175;SDS011;10746;50.178;8.186;2023-03-01T00:20:37;25.60;;;10.10;;
21175;SDS011;10746;50.178;8.186;2023-03-01T00:23:04;18.80;;;9.67;;
21175;SDS011;10746;50.178;8.186;2023-03-01T00:25:30;24.97;;;11.57;;
21175;SDS011;10746;50.178;8.186;2023-03-01T00:27:57;20.30;;;10.43;;
21175;SDS011;10746;50.178;8.186;2023-03-01T00:30:24;21.80;;;11.13;;
21175;SDS011;10746;50.178;8.186;2023-03-01T00:32:51;19.83;;;10.50;;
21175;SDS011;10746;50.178;8.186;2023-03-01T00:35:17;26.83;;;10.57;;
21175;SDS011;10746;50.178;8.186;2023-03-01T00:37:46;19.20;;;10.20;;
21175;SDS011;10746;50.178;8.186;2023-03-01T00:40:13;19.27;;;9.40;;
21175;SDS011;10746;50.178;8.186;2023-03-01T00:42:41;19.17;;;10.27;;
21175;SDS011;10746;50.178;8.186;2023-03-01T00:45:08;20.10;;;10.20;;
21175;SDS011;10746;50.178;8.186;2023-03-01T00:47:35;23.60;;;11.27;;
21175;SDS011;10746;50.178;8.186;2023-03-01T00:50:02;20.00;;;10.07;;
21175;SDS011;10746;50.178;8.186;2023-03-01T00:52:29;20.47;;;10.83;;
21175;SDS011;10746;50.178;8.186;2023-03-01T00:54:57;19.40;;;10.57;;
21175;SDS011;10746;50.178;8.186;2023-03-01T00:57:24;22.90;;;10.87;;
21175;SDS011;10746;50.178;8.186;2023-03-01T00:59:51;21.70;;;10.93;;
21175;SDS011;10746;50.178;8.186;2023-03-01T01:02:18;20.73;;;10.80;;
21175;SDS011;10746;50.178;8.186;2023-03-01T01:04:45;19.53;;;10.37;;
21175;SDS011;10746;50.178;8.186;2023-03-01T01:07:12;24.63;;;10.77;;
21175;SDS011;10746;50.178;8.186;2023-03-01T01:09:39;22.67;;;10.87;;
21175;SDS011;10746;50.178;8.186;2023-03-01T01:12:07;23.23;;;10.87;;
21175;SDS011;10746;50.178;8.186;2023-03-01T01:14:34;20.53;;;10.30;;
21175;SDS011;10746;50.178;8.186;2023-03-01T01:17:01;20.73;;;10.43;;
21175;SDS011;10746;50.178;8.186;2023-03-01T01:19:28;24.53;;;11.20;;
21175;SDS011;10746;50.178;8.186;2023-03-01T01:21:55;17.77;;;10.07;;
21175;SDS011;10746;50.178;8.186;2023-03-01T01:24:22;22.07;;;10.27;;
21175;SDS011;10746;50.178;8.186;2023-03-01T01:26:49;24.87;;;11.30;;
21175;SDS011;10746;50.178;8.186;2023-03-01T01:29:17;23.23;;;10.77;;
21175;SDS011;10746;50.178;8.186;2023-03-01T01:31:44;18.53;;;10.37;;
21175;SDS011;10746;50.178;8.186;2023-03-01T01:34:12;18.50;;;9.93;;
21175;SDS011;10746;50.178;8.186;2023-03-01T01:36:40;20.50;;;10.40;;
21175;SDS011;10746;50.178;8.186;2023-03-01T01:39:07;23.47;;;10.97;;
21175;SDS011;10746;50.178;8.186;2023-03-01T01:41:38;21.10;;;10.47;;
21175;SDS011;10746;50.178;8.186;2023-03-01T01:44:13;26.13;;;11.80;;
21175;SDS011;10746;50.178;8.186;2023-03-01T01:46:44;24.10;;;11.40;;
21175;SDS011;10746;50.178;8.186;2023-03-01T01:49:22;18.60;;;10.10;;
21175;SDS011;10746;50.178;8.186;2023-03-01T01:51:55;23.97;;;11.20;;
21175;SDS011;10746;50.178;8.186;2023-03-01T01:54:29;21.07;;;10.90;;
21175;SDS011;10746;50.178;8.186;2023-03-01T01:57:03;20.43;;;10.30;;
21175;SDS011;10746;50.178;8.186;2023-03-01T01:59:34;22.90;;;10.07;;
21175;SDS011;10746;50.178;8.186;2023-03-01T02:02:03;23.13;;;12.27;;
21175;SDS011;10746;50.178;8.186;2023-03-01T02:04:31;19.90;;;10.13;;
21175;SDS011;10746;50.178;8.186;2023-03-01T02:07:00;31.07;;;11.33;;
21175;SDS011;10746;50.178;8.186;2023-03-01T02:09:31;22.93;;;11.17;;
21175;SDS011;10746;50.178;8.186;2023-03-01T02:11:59;23.47;;;10.77;;
21175;SDS011;10746;50.178;8.186;2023-03-01T02:14:27;28.17;;;11.40;;
21175;SDS011;10746;50.178;8.186;2023-03-01T02:16:53;25.70;;;11.43;;
21175;SDS011;10746;50.178;8.186;2023-03-01T02:19:25;26.27;;;12.37;;
21175;SDS011;10746;50.178;8.186;2023-03-01T02:22:05;19.70;;;9.90;;
21175;SDS011;10746;50.178;8.186;2023-03-01T02:24:39;23.43;;;11.43;;
21175;SDS011;10746;50.178;8.186;2023-03-01T02:27:12;18.83;;;10.53;;
21175;SDS011;10746;50.178;8.186;2023-03-01T02:29:41;21.53;;;11.43;;
21175;SDS011;10746;50.178;8.186;2023-03-01T02:32:09;22.17;;;10.30;;
21175;SDS011;10746;50.178;8.186;2023-03-01T02:34:37;21.60;;;12.13;;
21175;SDS011;10746;50.178;8.186;2023-03-01T02:37:06;24.63;;;12.07;;
21175;SDS011;10746;50.178;8.186;2023-03-01T02:39:38;24.83;;;12.17;;
21175;SDS011;10746;50.178;8.186;2023-03-01T02:42:08;24.03;;;11.17;;
21175;SDS011;10746;50.178;8.186;2023-03-01T02:44:38;21.83;;;11.63;;
21175;SDS011;10746;50.178;8.186;2023-03-01T02:47:06;25.33;;;11.77;;
21175;SDS011;10746;50.178;8.186;2023-03-01T02:49:33;22.83;;;11.23;;
21175;SDS011;10746;50.178;8.186;2023-03-01T02:52:08;19.80;;;10.83;;
21175;SDS011;10746;50.178;8.186;2023-03-01T02:54:54;24.10;;;11.57;;
21175;SDS011;10746;50.178;8.186;2023-03-01T02:57:25;21.27;;;11.90;;
21175;SDS011;10746;50.178;8.186;2023-03-01T02:59:54;21.93;;;11.10;;
21175;SDS011;10746;50.178;8.186;2023-03-01T03:02:24;29.23;;;12.37;;
21175;SDS011;10746;50.178;8.186;2023-03-01T03:05:02;22.80;;;11.87;;
21175;SDS011;10746;50.178;8.186;2023-03-01T03:07:31;26.03;;;12.57;;
21175;SDS011;10746;50.178;8.186;2023-03-01T03:09:59;22.80;;;11.53;;
21175;SDS011;10746;50.178;8.186;2023-03-01T03:12:26;20.27;;;11.37;;
21175;SDS011;10746;50.178;8.186;2023-03-01T03:14:53;24.43;;;12.13;;
21175;SDS011;10746;50.178;8.186;2023-03-01T03:17:19;24.10;;;12.10;;
21175;SDS011;10746;50.178;8.186;2023-03-01T03:19:48;23.20;;;12.07;;
21175;SDS011;10746;50.178;8.186;2023-03-01T03:22:14;27.83;;;12.50;;
21175;SDS011;10746;50.178;8.186;2023-03-01T03:24:41;24.43;;;11.63;;
21175;SDS011;10746;50.178;8.186;2023-03-01T03:27:08;26.07;;;12.63;;
21175;SDS011;10746;50.178;8.186;2023-03-01T03:29:35;27.07;;;12.40;;
21175;SDS011;10746;50.178;8.186;2023-03-01T03:32:02;24.93;;;11.87;;
21175;SDS011;10746;50.178;8.186;2023-03-01T03:34:29;30.33;;;13.03;;
21175;SDS011;10746;50.178;8.186;2023-03-01T03:36:57;23.37;;;11.37;;
21175;SDS011;10746;50.178;8.186;2023-03-01T03:39:24;23.77;;;11.53;;
21175;SDS011;10746;50.178;8.186;2023-03-01T03:41:52;25.03;;;11.80;;
21175;SDS011;10746;50.178;8.186;2023-03-01T03:44:19;24.47;;;11.87;;
21175;SDS011;10746;50.178;8.186;2023-03-01T03:46:46;26.93;;;12.20;;
21175;SDS011;10746;50.178;8.186;2023-03-01T03:49:13;24.77;;;12.60;;
21175;SDS011;10746;50.178;8.186;2023-03-01T03:51:40;24.27;;;11.47;;
21175;SDS011;10746;50.178;8.186;2023-03-01T03:54:08;29.37;;;13.30;;
21175;SDS011;10746;50.178;8.186;2023-03-01T03:56:35;26.00;;;12.23;;
21175;SDS011;10746;50.178;8.186;2023-03-01T03:59:02;26.53;;;12.87;;
21175;SDS011;10746;50.178;8.186;2023-03-01T04:01:31;26.17;;;12.97;;
21175;SDS011;10746;50.178;8.186;2023-03-01T04:03:57;28.07;;;12.87;;
21175;SDS011;10746;50.178;8.186;2023-03-01T04:06:29;29.80;;;11.90;;
21175;SDS011;10746;50.178;8.186;2023-03-01T04:08:56;29.10;;;13.37;;
21175;SDS011;10746;50.178;8.186;2023-03-01T04:11:26;26.63;;;12.83;;
21175;SDS011;10746;50.178;8.186;2023-03-01T04:13:55;32.43;;;13.97;;
21175;SDS011;10746;50.178;8.186;2023-03-01T04:16:23;26.80;;;13.17;;
21175;SDS011;10746;50.178;8.186;2023-03-01T04:18:50;27.33;;;12.27;;
21175;SDS011;10746;50.178;8.186;2023-03-01T04:21:19;29.07;;;13.43;;
21175;SDS011;10746;50.178;8.186;2023-03-01T04:23:46;26.77;;;13.20;;
21175;SDS011;10746;50.178;8.186;2023-03-01T04:26:13;27.40;;;13.50;;
21175;SDS011;10746;50.178;8.186;2023-03-01T04:28:41;27.67;;;13.50;;
21175;SDS011;10746;50.178;8.186;2023-03-01T04:31:11;29.63;;;12.63;;
21175;SDS011;10746;50.178;8.186;2023-03-01T04:33:40;29.27;;;13.20;;
21175;SDS011;10746;50.178;8.186;2023-03-01T04:36:07;27.03;;;14.13;;
21175;SDS011;10746;50.178;8.186;2023-03-01T04:38:35;30.27;;;15.33;;
21175;SDS011;10746;50.178;8.186;2023-03-01T04:41:03;33.00;;;13.13;;
21175;SDS011;10746;50.178;8.186;2023-03-01T04:43:30;26.13;;;13.23;;
21175;SDS011;10746;50.178;8.186;2023-03-01T04:46:01;32.03;;;13.77;;
21175;SDS011;10746;50.178;8.186;2023-03-01T04:48:29;29.17;;;14.27;;
21175;SDS011;10746;50.178;8.186;2023-03-01T04:50:56;30.13;;;13.60;;
21175;SDS011;10746;50.178;8.186;2023-03-01T04:53:24;37.00;;;14.03;;
21175;SDS011;10746;50.178;8.186;2023-03-01T04:55:50;28.60;;;13.37;;
21175;SDS011;10746;50.178;8.186;2023-03-01T04:58:17;27.90;;;13.10;;
21175;SDS011;10746;50.178;8.186;2023-03-01T05:00:44;34.23;;;14.17;;
21175;SDS011;10746;50.178;8.186;2023-03-01T05:03:12;29.80;;;13.73;;
21175;SDS011;10746;50.178;8.186;2023-03-01T05:05:43;30.63;;;13.80;;
21175;SDS011;10746;50.178;8.186;2023-03-01T05:08:11;31.03;;;13.20;;
21175;SDS011;10746;50.178;8.186;2023-03-01T05:10:43;36.33;;;13.93;;
21175;SDS011;10746;50.178;8.186;2023-03-01T05:13:10;27.23;;;13.67;;
21175;SDS011;10746;50.178;8.186;2023-03-01T05:15:40;31.30;;;13.83;;
21175;SDS011;10746;50.178;8.186;2023-03-01T05:18:06;32.07;;;14.23;;
21175;SDS011;10746;50.178;8.186;2023-03-01T05:20:37;34.17;;;12.90;;
21175;SDS011;10746;50.178;8.186;2023-03-01T05:23:04;31.30;;;14.43;;
21175;SDS011;10746;50.178;8.186;2023-03-01T05:25:32;32.87;;;14.20;;
21175;SDS011;10746;50.178;8.186;2023-03-01T05:28:00;28.87;;;13.87;;
21175;SDS011;10746;50.178;8.186;2023-03-01T05:30:29;36.10;;;15.03;;
21175;SDS011;10746;50.178;8.186;2023-03-01T05:32:57;32.53;;;14.20;;
21175;SDS011;10746;50.178;8.186;2023-03-01T05:35:24;40.00;;;15.03;;
21175;SDS011;10746;50.178;8.186;2023-03-01T05:37:52;31.13;;;14.03;;
21175;SDS011;10746;50.178;8.186;2023-03-01T05:40:19;32.20;;;13.87;;
21175;SDS011;10746;50.178;8.186;2023-03-01T05:42:49;35.93;;;14.10;;
21175;SDS011;10746;50.178;8.186;2023-03-01T05:45:18;30.70;;;13.73;;
21175;SDS011;10746;50.178;8.186;2023-03-01T05:47:45;32.97;;;14.53;;
21175;SDS011;10746;50.178;8.186;2023-03-01T05:50:14;37.30;;;14.67;;
21175;SDS011;10746;50.178;8.186;2023-03-01T05:52:44;29.50;;;13.57;;
21175;SDS011;10746;50.178;8.186;2023-03-01T05:55:13;30.13;;;13.60;;
21175;SDS011;10746;50.178;8.186;2023-03-01T05:57:39;33.90;;;15.03;;
21175;SDS011;10746;50.178;8.186;2023-03-01T06:00:07;31.90;;;14.67;;
21175;SDS011;10746;50.178;8.186;2023-03-01T06:02:35;33.37;;;14.00;;
21175;SDS011;10746;50.178;8.186;2023-03-01T06:05:02;32.33;;;14.63;;
21175;SDS011;10746;50.178;8.186;2023-03-01T06:07:30;32.87;;;15.57;;
21175;SDS011;10746;50.178;8.186;2023-03-01T06:09:57;31.17;;;14.63;;
21175;SDS011;10746;50.178;8.186;2023-03-01T06:12:25;38.37;;;14.87;;
21175;SDS011;10746;50.178;8.186;2023-03-01T06:14:52;36.33;;;14.63;;
21175;SDS011;10746;50.178;8.186;2023-03-01T06:17:18;32.50;;;14.97;;
21175;SDS011;10746;50.178;8.186;2023-03-01T06:19:46;33.93;;;15.60;;
21175;SDS011;10746;50.178;8.186;2023-03-01T06:22:13;40.27;;;15.37;;
21175;SDS011;10746;50.178;8.186;2023-03-01T06:24:39;38.67;;;15.83;;
21175;SDS011;10746;50.178;8.186;2023-03-01T06:27:06;30.57;;;15.20;;
21175;SDS011;10746;50.178;8.186;2023-03-01T06:29:34;37.77;;;15.17;;
21175;SDS011;10746;50.178;8.186;2023-03-01T06:32:01;33.33;;;14.23;;
21175;SDS011;10746;50.178;8.186;2023-03-01T06:34:28;32.20;;;14.37;;
21175;SDS011;10746;50.178;8.186;2023-03-01T06:36:55;32.60;;;14.23;;
21175;SDS011;10746;50.178;8.186;2023-03-01T06:39:22;40.77;;;14.67;;
21175;SDS011;10746;50.178;8.186;2023-03-01T06:41:49;32.53;;;15.50;;
21175;SDS011;10746;50.178;8.186;2023-03-01T06:44:16;40.43;;;15.63;;
21175;SDS011;10746;50.178;8.186;2023-03-01T06:46:44;32.60;;;14.97;;
21175;SDS011;10746;50.178;8.186;2023-03-01T06:49:10;33.87;;;15.17;;
21175;SDS011;10746;50.178;8.186;2023-03-01T06:51:37;33.23;;;15.80;;
21175;SDS011;10746;50.178;8.186;2023-03-01T06:54:04;33.10;;;15.00;;
21175;SDS011;10746;50.178;8.186;2023-03-01T06:56:31;29.13;;;14.43;;
21175;SDS011;10746;50.178;8.186;2023-03-01T06:58:58;32.43;;;14.80;;
21175;SDS011;10746;50.178;8.186;2023-03-01T07:01:25;35.47;;;14.03;;
21175;SDS011;10746;50.178;8.186;2023-03-01T07:03:53;27.13;;;13.03;;
21175;SDS011;10746;50.178;8.186;2023-03-01T07:06:20;26.33;;;13.23;;
21175;SDS011;10746;50.178;8.186;2023-03-01T07:08:46;32.17;;;13.03;;
21175;SDS011;10746;50.178;8.186;2023-03-01T07:11:13;30.03;;;13.63;;
21175;SDS011;10746;50.178;8.186;2023-03-01T07:13:40;29.63;;;14.13;;
21175;SDS011;10746;50.178;8.186;2023-03-01T07:16:07;33.67;;;14.73;;
21175;SDS011;10746;50.178;8.186;2023-03-01T07:18:34;28.83;;;13.93;;
21175;SDS011;10746;50.178;8.186;2023-03-01T07:21:05;30.13;;;13.50;;
21175;SDS011;10746;50.178;8.186;2023-03-01T07:23:32;33.63;;;12.97;;
21175;SDS011;10746;50.178;8.186;2023-03-01T07:25:59;28.57;;;13.50;;
21175;SDS011;10746;50.178;8.186;2023-03-01T07:28:26;25.97;;;13.07;;
21175;SDS011;10746;50.178;8.186;2023-03-01T07:30:53;24.97;;;12.87;;
21175;SDS011;10746;50.178;8.186;2023-03-01T07:33:20;27.53;;;13.40;;
21175;SDS011;10746;50.178;8.186;2023-03-01T07:35:47;32.87;;;14.10;;
21175;SDS011;10746;50.178;8.186;2023-03-01T07:38:15;27.17;;;13.53;;
21175;SDS011;10746;50.178;8.186;2023-03-01T07:40:42;29.57;;;14.47;;
21175;SDS011;10746;50.178;8.186;2023-03-01T07:43:09;27.60;;;13.47;;
21175;SDS011;10746;50.178;8.186;2023-03-01T07:45:35;30.27;;;13.37;;
21175;SDS011;10746;50.178;8.186;2023-03-01T07:48:02;26.10;;;12.37;;
21175;SDS011;10746;50.178;8.186;2023-03-01T07:50:29;22.90;;;11.93;;
21175;SDS011;10746;50.178;8.186;2023-03-01T07:52:56;23.33;;;12.10;;
21175;SDS011;10746;50.178;8.186;2023-03-01T07:55:24;26.13;;;12.00;;
21175;SDS011;10746;50.178;8.186;2023-03-01T07:57:51;28.00;;;13.00;;
21175;SDS011;10746;50.178;8.186;2023-03-01T08:00:18;23.37;;;11.90;;
21175;SDS011;10746;50.178;8.186;2023-03-01T08:02:45;25.07;;;13.00;;
21175;SDS011;10746;50.178;8.186;2023-03-01T08:05:12;20.00;;;12.20;;
21175;SDS011;10746;50.178;8.186;2023-03-01T08:07:38;23.23;;;12.33;;
21175;SDS011;10746;50.178;8.186;2023-03-01T08:10:05;20.63;;;11.03;;
21175;SDS011;10746;50.178;8.186;2023-03-01T08:12:34;22.67;;;12.20;;
21175;SDS011;10746;50.178;8.186;2023-03-01T08:15:01;24.80;;;11.57;;
21175;SDS011;10746;50.178;8.186;2023-03-01T08:17:27;24.80;;;11.47;;
21175;SDS011;10746;50.178;8.186;2023-03-01T08:19:54;25.90;;;12.47;;
21175;SDS011;10746;50.178;8.186;2023-03-01T08:22:21;25.50;;;12.20;;
21175;SDS011;10746;50.178;8.186;2023-03-01T08:24:48;25.80;;;11.50;;
21175;SDS011;10746;50.178;8.186;2023-03-01T08:27:15;25.43;;;11.67;;
21175;SDS011;10746;50.178;8.186;2023-03-01T08:29:43;24.47;;;11.57;;
21175;SDS011;10746;50.178;8.186;2023-03-01T08:32:10;23.93;;;11.13;;
21175;SDS011;10746;50.178;8.186;2023-03-01T08:34:36;22.63;;;11.70;;
21175;SDS011;10746;50.178;8.186;2023-03-01T08:37:03;22.23;;;10.80;;
21175;SDS011;10746;50.178;8.186;2023-03-01T08:39:30;23.13;;;12.27;;
21175;SDS011;10746;50.178;8.186;2023-03-01T08:41:57;22.43;;;12.10;;
21175;SDS011;10746;50.178;8.186;2023-03-01T08:44:24;23.87;;;11.00;;
21175;SDS011;10746;50.178;8.186;2023-03-01T08:46:52;23.23;;;11.90;;
21175;SDS011;10746;50.178;8.186;2023-03-01T08:49:20;19.57;;;11.23;;
21175;SDS011;10746;50.178;8.186;2023-03-01T08:51:47;24.57;;;11.87;;
21175;SDS011;10746;50.178;8.186;2023-03-01T08:54:15;23.03;;;11.50;;
21175;SDS011;10746;50.178;8.186;2023-03-01T08:56:43;23.83;;;11.90;;
21175;SDS011;10746;50.178;8.186;2023-03-01T08:59:10;23.00;;;11.23;;
21175;SDS011;10746;50.178;8.186;2023-03-01T09:01:37;25.80;;;12.40;;
21175;SDS011;10746;50.178;8.186;2023-03-01T09:04:06;25.73;;;11.73;;
21175;SDS011;10746;50.178;8.186;2023-03-01T09:06:33;22.23;;;11.13;;
21175;SDS011;10746;50.178;8.186;2023-03-01T09:09:00;21.77;;;11.83;;
21175;SDS011;10746;50.178;8.186;2023-03-01T09:11:28;29.17;;;12.30;;
21175;SDS011;10746;50.178;8.186;2023-03-01T09:13:55;21.30;;;11.03;;
21175;SDS011;10746;50.178;8.186;2023-03-01T09:16:23;23.53;;;11.97;;
21175;SDS011;10746;50.178;8.186;2023-03-01T09:18:50;25.60;;;11.97;;
21175;SDS011;10746;50.178;8.186;2023-03-01T09:21:21;20.37;;;10.97;;
21175;SDS011;10746;50.178;8.186;2023-03-01T09:23:49;23.20;;;12.03;;
21175;SDS011;10746;50.178;8.186;2023-03-01T09:26:16;21.20;;;11.80;;
21175;SDS011;10746;50.178;8.186;2023-03-01T09:28:46;22.70;;;11.27;;
21175;SDS011;10746;50.178;8.186;2023-03-01T09:31:13;21.47;;;10.60;;
21175;SDS011;10746;50.178;8.186;2023-03-01T09:33:41;24.50;;;12.37;;
21175;SDS011;10746;50.178;8.186;2023-03-01T09:36:10;21.17;;;11.40;;
21175;SDS011;10746;50.178;8.186;2023-03-01T09:38:40;20.97;;;10.90;;
21175;SDS011;10746;50.178;8.186;2023-03-01T09:41:09;25.60;;;11.50;;
21175;SDS011;10746;50.178;8.186;2023-03-01T09:43:46;19.57;;;10.23;;
21175;SDS011;10746;50.178;8.186;2023-03-01T09:46:19;21.80;;;11.50;;
21175;SDS011;10746;50.178;8.186;2023-03-01T09:48:49;19.60;;;11.07;;
21175;SDS011;10746;50.178;8.186;2023-03-01T09:51:19;19.67;;;11.30;;
21175;SDS011;10746;50.178;8.186;2023-03-01T09:53:53;20.43;;;11.30;;
21175;SDS011;10746;50.178;8.186;2023-03-01T09:56:22;22.47;;;11.30;;
21175;SDS011;10746;50.178;8.186;2023-03-01T09:58:56;23.40;;;11.37;;
21175;SDS011;10746;50.178;8.186;2023-03-01T10:01:32;21.73;;;11.00;;
21175;SDS011;10746;50.178;8.186;2023-03-01T10:06:54;22.43;;;11.17;;
21175;SDS011;10746;50.178;8.186;2023-03-01T10:09:33;25.97;;;12.13;;
21175;SDS011;10746;50.178;8.186;2023-03-01T10:12:02;23.70;;;11.37;;
21175;SDS011;10746;50.178;8.186;2023-03-01T10:14:33;21.63;;;12.13;;
21175;SDS011;10746;50.178;8.186;2023-03-01T10:17:03;23.50;;;12.47;;
21175;SDS011;10746;50.178;8.186;2023-03-01T10:19:37;26.03;;;12.60;;
21175;SDS011;10746;50.178;8.186;2023-03-01T10:22:10;23.93;;;11.37;;
21175;SDS011;10746;50.178;8.186;2023-03-01T10:24:41;23.77;;;11.97;;
21175;SDS011;10746;50.178;8.186;2023-03-01T10:27:11;24.73;;;11.33;;
21175;SDS011;10746;50.178;8.186;2023-03-01T10:29:44;21.87;;;11.40;;
21175;SDS011;10746;50.178;8.186;2023-03-01T10:32:17;25.83;;;11.93;;
21175;SDS011;10746;50.178;8.186;2023-03-01T10:34:47;25.07;;;11.97;;
21175;SDS011;10746;50.178;8.186;2023-03-01T10:37:14;22.37;;;11.80;;
21175;SDS011;10746;50.178;8.186;2023-03-01T10:40:00;24.33;;;11.00;;
21175;SDS011;10746;50.178;8.186;2023-03-01T10:42:34;22.57;;;10.83;;
21175;SDS011;10746;50.178;8.186;2023-03-01T10:45:16;20.37;;;10.40;;
21175;SDS011;10746;50.178;8.186;2023-03-01T10:48:02;23.07;;;12.37;;
21175;SDS011;10746;50.178;8.186;2023-03-01T10:50:31;18.87;;;9.60;;
21175;SDS011;10746;50.178;8.186;2023-03-01T10:52:59;20.20;;;11.80;;
21175;SDS011;10746;50.178;8.186;2023-03-01T10:55:31;24.07;;;11.27;;
21175;SDS011;10746;50.178;8.186;2023-03-01T10:58:07;20.50;;;11.03;;
21175;SDS011;10746;50.178;8.186;2023-03-01T11:00:46;22.00;;;11.50;;
21175;SDS011;10746;50.178;8.186;2023-03-01T11:03:16;20.90;;;11.40;;
21175;SDS011;10746;50.178;8.186;2023-03-01T11:05:52;17.87;;;10.33;;
21175;SDS011;10746;50.178;8.186;2023-03-01T11:08:37;21.97;;;10.77;;
21175;SDS011;10746;50.178;8.186;2023-03-01T11:13:53;18.73;;;10.73;;
21175;SDS011;10746;50.178;8.186;2023-03-01T11:16:22;18.00;;;9.87;;
21175;SDS011;10746;50.178;8.186;2023-03-01T11:19:13;19.10;;;11.03;;
21175;SDS011;10746;50.178;8.186;2023-03-01T11:21:43;18.00;;;10.20;;
21175;SDS011;10746;50.178;8.186;2023-03-01T11:24:18;22.67;;;11.40;;
21175;SDS011;10746;50.178;8.186;2023-03-01T11:26:51;21.53;;;10.93;;
21175;SDS011;10746;50.178;8.186;2023-03-01T11:29:22;19.47;;;10.47;;
21175;SDS011;10746;50.178;8.186;2023-03-01T11:31:55;20.25;;;10.00;;
21175;SDS011;10746;50.178;8.186;2023-03-01T11:34:30;17.63;;;10.02;;
21175;SDS011;10746;50.178;8.186;2023-03-01T11:37:08;15.23;;;9.70;;
21175;SDS011;10746;50.178;8.186;2023-03-01T11:39:49;19.87;;;11.00;;
21175;SDS011;10746;50.178;8.186;2023-03-01T11:42:27;18.23;;;10.43;;
21175;SDS011;10746;50.178;8.186;2023-03-01T11:45:02;17.40;;;10.10;;
21175;SDS011;10746;50.178;8.186;2023-03-01T11:47:39;17.70;;;9.97;;
21175;SDS011;10746;50.178;8.186;2023-03-01T11:50:19;21.63;;;9.50;;
21175;SDS011;10746;50.178;8.186;2023-03-01T11:53:00;16.63;;;9.82;;
21175;SDS011;10746;50.178;8.186;2023-03-01T11:55:44;19.50;;;9.43;;
21175;SDS011;10746;50.178;8.186;2023-03-01T11:58:25;14.40;;;8.93;;
21175;SDS011;10746;50.178;8.186;2023-03-01T12:01:04;14.80;;;9.77;;
21175;SDS011;10746;50.178;8.186;2023-03-01T12:03:52;19.70;;;10.07;;
21175;SDS011;10746;50.178;8.186;2023-03-01T12:06:42;18.02;;;9.95;;
21175;SDS011;10746;50.178;8.186;2023-03-01T12:09:25;16.30;;;9.73;;
21175;SDS011;10746;50.178;8.186;2023-03-01T12:12:06;14.45;;;8.98;;
21175;SDS011;10746;50.178;8.186;2023-03-01T12:14:54;15.30;;;8.90;;
21175;SDS011;10746;50.178;8.186;2023-03-01T12:17:35;17.45;;;8.98;;
21175;SDS011;10746;50.178;8.186;2023-03-01T12:20:17;13.98;;;7.97;;
21175;SDS011;10746;50.178;8.186;2023-03-01T12:23:00;15.55;;;8.68;;
21175;SDS011;10746;50.178;8.186;2023-03-01T12:25:47;16.33;;;8.20;;
21175;SDS011;10746;50.178;8.186;2023-03-01T12:28:19;11.75;;;8.13;;
21175;SDS011;10746;50.178;8.186;2023-03-01T12:31:10;13.15;;;8.10;;
21175;SDS011;10746;50.178;8.186;2023-03-01T12:34:00;11.93;;;7.90;;
21175;SDS011;10746;50.178;8.186;2023-03-01T12:36:37;14.70;;;8.25;;
21175;SDS011;10746;50.178;8.186;2023-03-01T12:39:18;13.52;;;8.15;;
21175;SDS011;10746;50.178;8.186;2023-03-01T12:42:03;14.45;;;8.27;;
21175;SDS011;10746;50.178;8.186;2023-03-01T12:44:44;13.65;;;7.97;;
21175;SDS011;10746;50.178;8.186;2023-03-01T12:47:39;14.48;;;7.80;;
21175;SDS011;10746;50.178;8.186;2023-03-01T12:50:21;17.20;;;7.10;;
21175;SDS011;10746;50.178;8.186;2023-03-01T12:52:52;15.30;;;7.77;;
21175;SDS011;10746;50.178;8.186;2023-03-01T12:55:26;12.68;;;7.00;;
21175;SDS011;10746;50.178;8.186;2023-03-01T12:57:57;12.95;;;7.75;;
21175;SDS011;10746;50.178;8.186;2023-03-01T13:00:35;12.77;;;7.78;;
21175;SDS011;10746;50.178;8.186;2023-03-01T13:03:12;16.92;;;8.85;;
21175;SDS011;10746;50.178;8.186;2023-03-01T13:05:50;18.55;;;8.73;;
21175;SDS011;10746;50.178;8.186;2023-03-01T13:08:27;15.98;;;8.98;;
21175;SDS011;10746;50.178;8.186;2023-03-01T13:10:58;12.70;;;8.27;;
21175;SDS011;10746;50.178;8.186;2023-03-01T13:13:27;11.48;;;8.10;;
21175;SDS011;10746;50.178;8.186;2023-03-01T13:15:55;15.10;;;8.95;;
21175;SDS011;10746;50.178;8.186;2023-03-01T13:18:33;19.73;;;8.63;;
21175;SDS011;10746;50.178;8.186;2023-03-01T13:21:03;13.20;;;7.93;;
21175;SDS011;10746;50.178;8.186;2023-03-01T13:23:31;17.05;;;8.68;;
21175;SDS011;10746;50.178;8.186;2023-03-01T13:26:02;13.85;;;9.13;;
21175;SDS011;10746;50.178;8.186;2023-03-01T13:37:28;10.82;;;7.55;;
21175;SDS011;10746;50.178;8.186;2023-03-01T13:39:57;14.68;;;7.80;;
21175;SDS011;10746;50.178;8.186;2023-03-01T13:42:31;14.95;;;7.53;;
21175;SDS011;10746;50.178;8.186;2023-03-01T13:45:19;13.23;;;6.93;;
21175;SDS011;10746;50.178;8.186;2023-03-01T13:47:55;15.15;;;8.43;;
21175;SDS011;10746;50.178;8.186;2023-03-01T13:50:27;12.25;;;7.85;;
21175;SDS011;10746;50.178;8.186;2023-03-01T13:52:57;15.18;;;8.57;;
21175;SDS011;10746;50.178;8.186;2023-03-01T13:55:27;15.93;;;8.77;;
21175;SDS011;10746;50.178;8.186;2023-03-01T13:58:02;15.45;;;7.88;;
21175;SDS011;10746;50.178;8.186;2023-03-01T14:00:39;20.42;;;8.70;;
21175;SDS011;10746;50.178;8.186;2023-03-01T14:03:11;11.68;;;7.38;;
21175;SDS011;10746;50.178;8.186;2023-03-01T14:05:41;12.70;;;8.10;;
21175;SDS011;10746;50.178;8.186;2023-03-01T14:08:19;15.07;;;8.77;;
21175;SDS011;10746;50.178;8.186;2023-03-01T14:10:54;13.07;;;8.10;;
21175;SDS011;10746;50.178;8.186;2023-03-01T14:13:46;14.13;;;8.07;;
21175;SDS011;10746;50.178;8.186;2023-03-01T14:16:24;12.83;;;7.13;;
21175;SDS011;10746;50.178;8.186;2023-03-01T14:19:05;15.47;;;8.67;;
21175;SDS011;10746;50.178;8.186;2023-03-01T14:21:42;15.07;;;8.40;;
21175;SDS011;10746;50.178;8.186;2023-03-01T14:24:15;17.97;;;8.27;;
21175;SDS011;10746;50.178;8.186;2023-03-01T14:26:44;16.77;;;8.60;;
21175;SDS011;10746;50.178;8.186;2023-03-01T14:29:23;15.13;;;8.40;;
21175;SDS011;10746;50.178;8.186;2023-03-01T14:31:51;12.50;;;8.10;;
21175;SDS011;10746;50.178;8.186;2023-03-01T14:34:18;15.43;;;8.63;;
21175;SDS011;10746;50.178;8.186;2023-03-01T14:36:48;17.57;;;8.30;;
21175;SDS011;10746;50.178;8.186;2023-03-01T14:39:18;15.10;;;8.50;;
21175;SDS011;10746;50.178;8.186;2023-03-01T14:41:50;15.70;;;8.43;;
21175;SDS011;10746;50.178;8.186;2023-03-01T14:44:19;17.93;;;8.40;;
21175;SDS011;10746;50.178;8.186;2023-03-01T14:46:51;18.40;;;8.20;;
21175;SDS011;10746;50.178;8.186;2023-03-01T14:49:20;13.83;;;8.30;;
21175;SDS011;10746;50.178;8.186;2023-03-01T14:51:53;16.83;;;8.73;;
21175;SDS011;10746;50.178;8.186;2023-03-01T14:54:24;15.17;;;9.03;;
21175;SDS011;10746;50.178;8.186;2023-03-01T14:56:53;13.40;;;7.93;;